createdAt,value
2023-07-27T00:00:11.959Z,12.57
2023-07-27T00:03:01.565Z,12.56
2023-07-27T00:05:31.648Z,12.54
2023-07-27T00:08:00.834Z,12.52
2023-07-27T00:10:30.992Z,12.51
2023-07-27T00:13:00.922Z,12.49
2023-07-27T00:15:30.485Z,12.48
2023-07-27T00:17:59.801Z,12.45
2023-07-27T00:20:30.173Z,12.44
2023-07-27T00:22:59.890Z,12.44
2023-07-27T00:25:29.557Z,12.44
2023-07-27T00:28:00.911Z,12.42
2023-07-27T00:30:30.786Z,12.41
2023-07-27T00:33:00.223Z,12.41
2023-07-27T00:35:29.833Z,12.43
2023-07-27T00:37:58.835Z,12.43
2023-07-27T00:40:27.752Z,12.44
2023-07-27T00:42:56.894Z,12.44
2023-07-27T00:45:28.133Z,12.42
2023-07-27T00:47:57.115Z,12.42
2023-07-27T00:50:25.990Z,12.42
2023-07-27T00:52:55.012Z,12.41
2023-07-27T00:55:24.223Z,12.40
2023-07-27T00:57:53.285Z,12.38
2023-07-27T01:00:22.811Z,12.37
2023-07-27T01:02:51.751Z,12.37
2023-07-27T01:05:21.563Z,12.36
2023-07-27T01:07:50.412Z,12.37
2023-07-27T01:10:25.064Z,12.37
2023-07-27T01:13:09.600Z,12.38
2023-07-27T01:15:45.719Z,12.40
2023-07-27T01:18:32.735Z,12.40
2023-07-27T01:21:35.761Z,12.41
2023-07-27T01:24:19.473Z,12.42
2023-07-27T01:27:09.808Z,12.43
2023-07-27T01:30:07.079Z,12.44
2023-07-27T01:32:41.027Z,12.45
2023-07-27T01:35:17.085Z,12.46
2023-07-27T01:37:51.088Z,12.47
2023-07-27T01:40:22.486Z,12.47
2023-07-27T01:42:53.336Z,12.47
2023-07-27T01:45:25.093Z,12.47
2023-07-27T01:47:56.916Z,12.47
2023-07-27T01:50:26.432Z,12.47
2023-07-27T01:52:58.916Z,12.46
2023-07-27T01:55:30.321Z,12.45
2023-07-27T01:58:04.268Z,12.45
2023-07-27T02:00:34.186Z,12.44
2023-07-27T02:03:04.084Z,12.44
2023-07-27T02:05:33.918Z,12.44
2023-07-27T02:08:07.680Z,12.42
2023-07-27T02:10:42.761Z,12.43
2023-07-27T02:13:29.591Z,12.43
2023-07-27T02:16:21.738Z,12.43
2023-07-27T02:18:52.518Z,12.41
2023-07-27T02:21:23.292Z,12.37
2023-07-27T02:23:54.733Z,12.34
2023-07-27T02:26:24.034Z,12.30
2023-07-27T02:28:53.526Z,12.24
2023-07-27T02:31:22.262Z,12.19
2023-07-27T02:33:52.029Z,12.14
2023-07-27T02:36:22.137Z,12.08
2023-07-27T02:38:50.890Z,12.04
2023-07-27T02:41:19.406Z,11.99
2023-07-27T02:43:49.230Z,11.94
2023-07-27T02:46:20.783Z,11.92
2023-07-27T02:48:51.731Z,11.89
2023-07-27T02:51:21.350Z,11.88
2023-07-27T02:53:50.092Z,11.86
2023-07-27T02:56:21.781Z,11.86
2023-07-27T02:58:50.589Z,11.86
2023-07-27T03:01:20.303Z,11.87
2023-07-27T03:03:50.919Z,11.86
2023-07-27T03:06:19.859Z,11.86
2023-07-27T03:08:48.921Z,11.86
2023-07-27T03:11:17.886Z,11.87
2023-07-27T03:13:47.050Z,11.88
2023-07-27T03:16:16.225Z,11.90
2023-07-27T03:18:44.722Z,11.92
2023-07-27T03:21:13.957Z,11.94
2023-07-27T03:23:42.619Z,11.96
2023-07-27T03:26:13.186Z,11.99
2023-07-27T03:28:45.354Z,12.03
2023-07-27T03:31:30.651Z,12.09
2023-07-27T03:34:00.941Z,12.21
2023-07-27T03:36:32.212Z,12.35
2023-07-27T03:39:03.287Z,12.47
2023-07-27T03:41:32.967Z,12.55
2023-07-27T03:44:01.514Z,12.73
2023-07-27T03:46:32.087Z,13.06
2023-07-27T03:49:03.249Z,13.54
2023-07-27T03:51:33.633Z,14.13
2023-07-27T03:54:03.793Z,14.85
2023-07-27T03:56:32.713Z,15.68
2023-07-27T03:59:03.003Z,16.61
2023-07-27T04:01:33.612Z,17.63
2023-07-27T04:04:03.105Z,18.68
2023-07-27T04:06:33.078Z,19.66
2023-07-27T04:09:01.620Z,20.46
2023-07-27T04:11:34.062Z,21.02
2023-07-27T04:14:04.115Z,21.20
2023-07-27T04:16:33.429Z,20.88
2023-07-27T04:19:02.513Z,20.30
2023-07-27T04:21:32.505Z,19.72
2023-07-27T04:24:02.975Z,19.18
2023-07-27T04:26:31.005Z,18.69
2023-07-27T04:28:59.423Z,18.35
2023-07-27T04:31:27.265Z,18.69
2023-07-27T04:33:55.108Z,19.21
2023-07-27T04:36:23.298Z,19.69
2023-07-27T04:38:51.131Z,20.43
2023-07-27T04:41:18.926Z,21.23
2023-07-27T04:43:46.720Z,22.23
2023-07-27T04:46:14.577Z,23.26
2023-07-27T04:48:42.410Z,23.89
2023-07-27T04:51:10.344Z,23.77
2023-07-27T04:53:38.292Z,23.38
2023-07-27T04:56:06.218Z,23.24
2023-07-27T04:58:34.126Z,23.81
2023-07-27T05:01:02.056Z,24.62
2023-07-27T05:03:29.926Z,25.39
2023-07-27T05:05:57.988Z,26.06
2023-07-27T05:08:25.759Z,26.72
2023-07-27T05:10:53.560Z,27.32
2023-07-27T05:13:21.552Z,27.95
2023-07-27T05:15:49.826Z,28.45
2023-07-27T05:18:17.765Z,28.93
2023-07-27T05:20:45.557Z,29.37
2023-07-27T05:23:13.375Z,29.43
2023-07-27T05:25:41.323Z,29.42
2023-07-27T05:28:09.371Z,29.05
2023-07-27T05:30:37.483Z,28.61
2023-07-27T05:33:05.637Z,28.09
2023-07-27T05:35:33.693Z,27.39
2023-07-27T05:38:02.385Z,26.64
2023-07-27T05:40:32.274Z,25.74
2023-07-27T05:43:00.721Z,24.71
2023-07-27T05:45:29.187Z,23.76
2023-07-27T05:47:57.350Z,22.84
2023-07-27T05:50:26.482Z,22.12
2023-07-27T05:52:54.440Z,21.62
2023-07-27T05:55:22.348Z,21.13
2023-07-27T05:57:50.373Z,20.70
2023-07-27T06:00:18.540Z,20.39
2023-07-27T06:02:46.412Z,20.16
2023-07-27T06:05:15.188Z,19.96
2023-07-27T06:07:43.562Z,19.85
2023-07-27T06:10:13.072Z,19.69
2023-07-27T06:12:41.376Z,19.43
2023-07-27T06:15:11.062Z,19.15
2023-07-27T06:17:39.065Z,18.99
2023-07-27T06:20:07.701Z,18.89
2023-07-27T06:22:35.846Z,18.77
2023-07-27T06:25:03.951Z,18.65
2023-07-27T06:27:32.005Z,18.57
2023-07-27T06:30:01.056Z,18.54
2023-07-27T06:32:29.234Z,18.50
2023-07-27T06:34:57.078Z,18.46
2023-07-27T06:37:25.886Z,18.61
2023-07-27T06:39:55.251Z,19.35
2023-07-27T06:42:23.368Z,19.93
2023-07-27T06:44:51.127Z,19.86
2023-07-27T06:47:19.266Z,19.62
2023-07-27T06:49:47.515Z,19.39
2023-07-27T06:52:15.414Z,19.20
2023-07-27T06:54:43.364Z,19.08
2023-07-27T06:57:12.483Z,19.01
2023-07-27T06:59:40.428Z,19.01
2023-07-27T07:02:08.489Z,19.02
2023-07-27T07:04:38.740Z,19.05
2023-07-27T07:07:08.929Z,19.13
2023-07-27T07:09:37.310Z,19.25
2023-07-27T07:12:07.659Z,19.38
2023-07-27T07:14:35.566Z,19.49
2023-07-27T07:17:04.075Z,19.52
2023-07-27T07:19:32.181Z,19.52
2023-07-27T07:22:00.326Z,19.51
2023-07-27T07:24:28.417Z,19.43
2023-07-27T07:26:57.096Z,19.39
2023-07-27T07:29:24.990Z,19.35
2023-07-27T07:31:52.865Z,19.24
2023-07-27T07:34:20.728Z,19.13
2023-07-27T07:36:48.796Z,19.11
2023-07-27T07:39:16.672Z,19.13
2023-07-27T07:41:44.494Z,19.21
2023-07-27T07:44:12.477Z,19.33
2023-07-27T07:46:41.787Z,19.39
2023-07-27T07:49:10.088Z,19.40
2023-07-27T07:51:38.195Z,19.44
2023-07-27T07:54:09.262Z,19.51
2023-07-27T07:56:37.708Z,19.54
2023-07-27T07:59:05.581Z,19.53
2023-07-27T08:01:33.451Z,19.60
2023-07-27T08:04:01.783Z,19.67
2023-07-27T08:06:29.761Z,19.71
2023-07-27T08:08:57.610Z,19.71
2023-07-27T08:11:25.822Z,19.70
2023-07-27T08:13:53.823Z,19.74
2023-07-27T08:16:21.882Z,19.81
2023-07-27T08:18:49.693Z,19.89
2023-07-27T08:21:18.004Z,20.00
2023-07-27T08:23:45.934Z,20.13
2023-07-27T08:26:14.045Z,20.23
2023-07-27T08:28:42.551Z,20.32
2023-07-27T08:31:10.480Z,20.38
2023-07-27T08:33:38.523Z,20.42
2023-07-27T08:36:06.726Z,20.39
2023-07-27T08:38:34.636Z,20.38
2023-07-27T08:41:02.775Z,20.47
2023-07-27T08:43:31.091Z,20.58
2023-07-27T08:46:00.577Z,20.69
2023-07-27T08:48:29.963Z,20.85
2023-07-27T08:50:58.823Z,20.99
2023-07-27T08:53:27.493Z,21.11
2023-07-27T08:55:55.475Z,21.17
2023-07-27T08:58:23.352Z,21.23
2023-07-27T09:00:51.402Z,21.32
2023-07-27T09:03:19.437Z,21.41
2023-07-27T09:06:01.189Z,21.56
2023-07-27T09:08:30.590Z,21.75
2023-07-27T09:11:09.851Z,21.82
2023-07-27T09:13:41.239Z,21.75
2023-07-27T09:16:10.218Z,21.59
2023-07-27T09:18:39.419Z,21.45
2023-07-27T09:21:11.809Z,21.46
2023-07-27T09:23:40.049Z,21.49
2023-07-27T09:26:12.219Z,21.58
2023-07-27T09:28:40.258Z,21.53
2023-07-27T09:31:08.180Z,21.43
2023-07-27T09:33:36.102Z,21.28
2023-07-27T09:36:08.810Z,21.26
2023-07-27T09:38:37.163Z,21.21
2023-07-27T09:41:09.406Z,21.08
2023-07-27T09:43:42.999Z,21.01
2023-07-27T09:46:11.099Z,21.07
2023-07-27T09:48:39.540Z,21.24
2023-07-27T09:51:09.194Z,21.55
2023-07-27T09:53:38.713Z,21.92
2023-07-27T09:56:08.064Z,22.24
2023-07-27T09:58:38.144Z,22.42
2023-07-27T10:01:06.122Z,22.45
2023-07-27T10:03:34.832Z,22.43
2023-07-27T10:06:04.889Z,22.46
2023-07-27T10:08:36.500Z,22.50
2023-07-27T10:11:04.423Z,22.48
2023-07-27T10:13:39.256Z,22.36
2023-07-27T10:16:11.002Z,22.18
2023-07-27T10:18:48.132Z,21.99
2023-07-27T10:21:24.017Z,21.96
2023-07-27T10:24:00.913Z,22.10
2023-07-27T10:26:52.448Z,22.25
2023-07-27T10:29:27.717Z,22.41
2023-07-27T10:32:12.317Z,22.50
2023-07-27T10:34:42.338Z,22.50
2023-07-27T10:37:13.809Z,22.63
2023-07-27T10:39:51.770Z,22.75
2023-07-27T10:42:24.058Z,22.71
2023-07-27T10:45:01.629Z,22.72
2023-07-27T10:47:39.139Z,22.81
2023-07-27T10:50:08.475Z,22.89
2023-07-27T10:52:38.661Z,22.93
2023-07-27T10:55:08.105Z,22.97
2023-07-27T10:57:36.998Z,23.15
2023-07-27T11:00:05.997Z,23.40
2023-07-27T11:02:36.996Z,23.45
2023-07-27T11:05:08.783Z,23.48
2023-07-27T11:07:44.297Z,23.60
2023-07-27T11:10:17.304Z,23.68
2023-07-27T11:12:56.496Z,23.62
2023-07-27T11:15:26.295Z,23.47
2023-07-27T11:17:58.320Z,23.19
2023-07-27T11:20:30.203Z,22.98
2023-07-27T11:22:59.882Z,22.90
2023-07-27T11:25:33.773Z,22.92
2023-07-27T11:28:04.850Z,22.99
2023-07-27T11:30:37.653Z,23.02
2023-07-27T11:33:07.346Z,23.10
2023-07-27T11:35:46.612Z,23.16
2023-07-27T11:38:14.850Z,23.22
2023-07-27T11:40:49.543Z,23.32
2023-07-27T11:43:17.818Z,23.45
2023-07-27T11:45:46.439Z,23.44
2023-07-27T11:48:15.059Z,23.44
2023-07-27T11:50:44.516Z,23.44
2023-07-27T11:53:19.900Z,23.53
2023-07-27T11:55:57.804Z,23.67
2023-07-27T11:58:30.912Z,23.76
2023-07-27T12:00:58.780Z,23.87
2023-07-27T12:03:26.834Z,24.03
2023-07-27T12:05:56.285Z,24.17
2023-07-27T12:11:04.485Z,24.32
2023-07-27T12:23:42.503Z,24.35
2023-07-27T12:28:43.327Z,24.38
2023-07-27T12:33:42.750Z,24.41
2023-07-27T12:36:11.133Z,24.44
2023-07-27T12:41:09.821Z,24.45
2023-07-27T12:43:37.783Z,24.45
2023-07-27T12:46:06.308Z,24.43
2023-07-27T12:48:34.312Z,24.37
2023-07-27T12:51:02.114Z,24.37
2023-07-27T12:53:30.050Z,24.35
2023-07-27T12:55:59.278Z,24.32
2023-07-27T12:58:27.129Z,24.31
2023-07-27T13:00:54.975Z,24.14
2023-07-27T13:03:22.987Z,24.00
2023-07-27T13:05:50.900Z,23.89
2023-07-27T13:08:21.043Z,23.81
2023-07-27T13:10:49.551Z,23.84
2023-07-27T13:13:17.843Z,23.94
2023-07-27T13:15:48.670Z,24.07
2023-07-27T13:18:16.751Z,24.11
2023-07-27T13:20:44.832Z,24.05
2023-07-27T13:23:12.693Z,23.85
2023-07-27T13:25:40.589Z,23.61
2023-07-27T13:28:08.536Z,23.39
2023-07-27T13:30:42.294Z,23.13
2023-07-27T13:33:12.534Z,22.85
2023-07-27T13:35:40.500Z,22.61
2023-07-27T13:38:08.410Z,22.43
2023-07-27T13:40:36.562Z,22.28
2023-07-27T13:43:04.394Z,22.18
2023-07-27T13:45:32.282Z,22.10
2023-07-27T13:48:09.436Z,21.99
2023-07-27T13:50:39.232Z,21.80
2023-07-27T13:53:07.233Z,21.58
2023-07-27T13:55:35.103Z,21.30
2023-07-27T13:58:03.183Z,20.97
2023-07-27T14:00:31.045Z,20.65
2023-07-27T14:02:59.010Z,20.31
2023-07-27T14:05:27.069Z,19.99
2023-07-27T14:07:55.110Z,19.73
2023-07-27T14:10:23.102Z,19.51
2023-07-27T14:12:50.968Z,19.34
2023-07-27T14:15:19.184Z,19.22
2023-07-27T14:17:47.245Z,19.13
2023-07-27T14:20:16.465Z,19.07
2023-07-27T14:22:44.478Z,19.04
2023-07-27T14:25:12.518Z,19.00
2023-07-27T14:27:40.393Z,18.99
2023-07-27T14:30:08.827Z,19.02
2023-07-27T14:32:36.974Z,19.15
2023-07-27T14:35:05.462Z,19.41
2023-07-27T14:37:33.290Z,19.76
2023-07-27T14:40:01.270Z,20.11
2023-07-27T14:42:29.161Z,20.41
2023-07-27T14:44:57.309Z,20.66
2023-07-27T14:47:25.219Z,20.83
2023-07-27T14:52:23.918Z,21.00
2023-07-27T14:54:52.197Z,21.04
2023-07-27T14:57:20.017Z,21.05
2023-07-27T14:59:58.091Z,21.04
2023-07-27T15:02:45.725Z,21.10
2023-07-27T15:05:14.445Z,21.18
2023-07-27T15:07:42.616Z,21.24
2023-07-27T15:10:29.098Z,21.32
2023-07-27T15:12:59.886Z,21.40
2023-07-27T15:15:29.410Z,21.49
2023-07-27T15:17:57.964Z,21.57
2023-07-27T15:20:26.143Z,21.56
2023-07-27T15:22:55.009Z,21.49
2023-07-27T15:25:23.216Z,21.35
2023-07-27T15:27:51.077Z,21.10
2023-07-27T15:30:19.030Z,20.83
2023-07-27T15:32:46.989Z,20.63
2023-07-27T15:35:15.019Z,20.53
2023-07-27T15:37:42.934Z,20.45
2023-07-27T15:40:11.355Z,20.39
2023-07-27T15:42:39.198Z,20.36
2023-07-27T15:45:08.023Z,20.35
2023-07-27T15:47:35.936Z,20.34
2023-07-27T15:50:04.335Z,20.32
2023-07-27T15:52:32.273Z,20.32
2023-07-27T15:55:00.194Z,20.35
2023-07-27T15:57:28.228Z,20.41
2023-07-27T16:00:02.633Z,20.48
2023-07-27T16:02:30.533Z,20.55
2023-07-27T16:04:58.568Z,20.57
2023-07-27T16:07:26.540Z,20.55
2023-07-27T16:10:03.561Z,20.48
2023-07-27T16:12:31.534Z,20.39
2023-07-27T16:14:59.445Z,20.30
2023-07-27T16:17:27.868Z,20.21
2023-07-27T16:19:56.185Z,20.12
2023-07-27T16:22:24.368Z,20.03
2023-07-27T16:24:53.624Z,19.97
2023-07-27T16:27:22.977Z,19.96
2023-07-27T16:29:50.959Z,19.95
2023-07-27T16:32:19.186Z,19.94
2023-07-27T16:34:47.219Z,19.94
2023-07-27T16:37:15.037Z,19.96
2023-07-27T16:39:43.006Z,19.94
2023-07-27T16:42:10.963Z,19.92
2023-07-27T16:44:38.867Z,19.91
2023-07-27T16:47:06.955Z,19.92
2023-07-27T16:49:34.864Z,19.93
2023-07-27T16:52:02.895Z,19.94
2023-07-27T16:54:30.788Z,19.92
2023-07-27T16:56:59.276Z,19.86
2023-07-27T16:59:27.284Z,19.75
2023-07-27T17:01:55.165Z,19.66
2023-07-27T17:04:23.028Z,19.63
2023-07-27T17:06:50.972Z,19.61
2023-07-27T17:09:18.846Z,19.56
2023-07-27T17:11:46.807Z,19.47
2023-07-27T17:14:14.753Z,19.38
2023-07-27T17:16:44.228Z,19.29
2023-07-27T17:19:12.158Z,19.21
2023-07-27T17:21:40.136Z,19.19
2023-07-27T17:24:09.673Z,19.18
2023-07-27T17:26:38.424Z,19.19
2023-07-27T17:29:06.486Z,19.19
2023-07-27T17:31:35.138Z,19.20
2023-07-27T17:34:03.156Z,19.50
2023-07-27T17:36:31.206Z,20.56
2023-07-27T17:38:59.226Z,21.34
2023-07-27T17:41:27.443Z,21.65
2023-07-27T17:43:56.126Z,21.96
2023-07-27T17:46:24.298Z,22.27
2023-07-27T17:48:52.367Z,22.34
2023-07-27T17:51:20.345Z,22.29
2023-07-27T17:53:48.330Z,22.36
2023-07-27T17:56:16.204Z,22.42
2023-07-27T17:58:44.241Z,22.38
2023-07-27T18:01:18.410Z,22.16
2023-07-27T18:03:49.906Z,21.92
2023-07-27T18:06:18.304Z,21.73
2023-07-27T18:08:46.334Z,21.54
2023-07-27T18:11:17.326Z,21.40
2023-07-27T18:13:54.638Z,21.23
2023-07-27T18:16:22.926Z,20.96
2023-07-27T18:18:55.067Z,20.74
2023-07-27T18:21:25.699Z,20.51
2023-07-27T18:23:53.950Z,20.31
2023-07-27T18:26:22.577Z,20.14
2023-07-27T18:28:58.810Z,19.98
2023-07-27T18:31:29.194Z,19.90
2023-07-27T18:33:59.706Z,19.93
2023-07-27T18:36:27.909Z,19.95
2023-07-27T18:38:56.102Z,19.89
2023-07-27T18:41:24.224Z,19.78
2023-07-27T18:43:52.555Z,19.73
2023-07-27T18:46:23.574Z,19.67
2023-07-27T18:49:04.034Z,19.57
2023-07-27T18:51:46.489Z,19.42
2023-07-27T18:54:14.875Z,19.30
2023-07-27T18:56:42.785Z,19.19
2023-07-27T18:59:11.184Z,19.13
2023-07-27T19:01:39.137Z,19.14
2023-07-27T19:04:07.180Z,19.17
2023-07-27T19:06:35.394Z,19.16
2023-07-27T19:09:05.429Z,19.15
2023-07-27T19:11:34.227Z,19.17
2023-07-27T19:14:02.808Z,19.16
2023-07-27T19:16:30.756Z,19.10
2023-07-27T19:18:58.646Z,19.04
2023-07-27T19:21:27.261Z,19.03
2023-07-27T19:23:55.199Z,19.02
2023-07-27T19:26:24.128Z,19.01
2023-07-27T19:28:52.087Z,18.97
2023-07-27T19:31:25.300Z,18.89
2023-07-27T19:33:53.339Z,18.81
2023-07-27T19:36:25.966Z,18.73
2023-07-27T19:38:57.984Z,18.63
2023-07-27T19:41:29.036Z,18.55
2023-07-27T19:43:57.435Z,18.47
2023-07-27T19:46:25.432Z,18.45
2023-07-27T19:48:54.335Z,18.43
2023-07-27T19:51:24.516Z,18.40
2023-07-27T19:53:52.443Z,18.37
2023-07-27T19:56:20.449Z,18.33
2023-07-27T19:58:49.745Z,18.30
2023-07-27T20:01:17.986Z,18.26
2023-07-27T20:03:48.807Z,18.20
2023-07-27T20:06:27.090Z,18.14
2023-07-27T20:08:56.633Z,18.09
2023-07-27T20:11:24.781Z,18.05
2023-07-27T20:13:52.730Z,18.01
2023-07-27T20:16:21.081Z,17.98
2023-07-27T20:18:48.868Z,17.91
2023-07-27T20:21:17.514Z,17.85
2023-07-27T20:23:45.433Z,17.78
2023-07-27T20:26:13.399Z,17.70
2023-07-27T20:28:41.329Z,17.62
2023-07-27T20:31:09.995Z,17.56
2023-07-27T20:33:40.758Z,17.53
2023-07-27T20:36:08.643Z,17.51
2023-07-27T20:38:38.131Z,17.47
2023-07-27T20:41:08.962Z,17.41
2023-07-27T20:43:36.963Z,17.34
2023-07-27T20:46:04.970Z,17.25
2023-07-27T20:48:35.650Z,17.17
2023-07-27T20:51:06.267Z,17.10
2023-07-27T20:53:37.576Z,17.03
2023-07-27T20:56:16.707Z,16.96
2023-07-27T20:58:47.054Z,16.88
2023-07-27T21:01:15.583Z,16.83
2023-07-27T21:03:43.411Z,16.81
2023-07-27T21:06:11.566Z,16.82
2023-07-27T21:08:40.201Z,16.83
2023-07-27T21:11:09.709Z,16.83
2023-07-27T21:13:39.188Z,16.81
2023-07-27T21:16:10.097Z,16.79
2023-07-27T21:18:38.936Z,16.82
2023-07-27T21:21:19.494Z,16.85
2023-07-27T21:23:49.177Z,16.87
2023-07-27T21:26:18.556Z,16.83
2023-07-27T21:28:47.568Z,16.75
2023-07-27T21:31:16.006Z,16.70
2023-07-27T21:33:44.211Z,16.66
2023-07-27T21:36:12.003Z,16.65
2023-07-27T21:38:39.883Z,16.60
2023-07-27T21:41:11.437Z,16.55
2023-07-27T21:43:40.485Z,16.55
2023-07-27T21:46:09.526Z,16.56
2023-07-27T21:48:38.787Z,16.58
2023-07-27T21:51:07.035Z,16.59
2023-07-27T21:53:34.906Z,16.61
2023-07-27T21:56:02.803Z,16.60
2023-07-27T21:58:30.636Z,16.56
2023-07-27T22:00:58.659Z,16.54
2023-07-27T22:03:26.550Z,16.56
2023-07-27T22:05:54.592Z,16.59
2023-07-27T22:08:22.442Z,16.66
2023-07-27T22:10:50.326Z,16.77
2023-07-27T22:13:18.108Z,16.85
2023-07-27T22:15:46.055Z,16.93
2023-07-27T22:18:13.919Z,17.02
2023-07-27T22:20:43.188Z,17.14
2023-07-27T22:23:11.848Z,17.21
2023-07-27T22:25:44.777Z,17.16
2023-07-27T22:28:13.104Z,17.08
2023-07-27T22:30:48.168Z,17.09
2023-07-27T22:33:16.755Z,17.10
2023-07-27T22:35:47.128Z,17.11
2023-07-27T22:38:16.160Z,17.11
2023-07-27T22:40:59.320Z,17.11
2023-07-27T22:43:27.227Z,17.16
2023-07-27T22:45:57.760Z,17.21
2023-07-27T22:48:26.351Z,17.27
2023-07-27T22:50:54.414Z,17.29
2023-07-27T22:53:22.273Z,17.31
2023-07-27T22:55:51.887Z,17.33
2023-07-27T22:58:21.836Z,17.35
2023-07-27T23:00:49.908Z,17.39
2023-07-27T23:03:17.779Z,17.41
2023-07-27T23:05:45.647Z,17.42
2023-07-27T23:08:13.414Z,17.37
2023-07-27T23:10:41.308Z,17.32
2023-07-27T23:13:09.080Z,17.25
2023-07-27T23:15:37.059Z,17.18
2023-07-27T23:18:05.216Z,17.11
2023-07-27T23:20:34.147Z,17.02
2023-07-27T23:23:02.429Z,16.91
2023-07-27T23:25:30.289Z,16.81
2023-07-27T23:27:58.428Z,16.74
2023-07-27T23:30:26.294Z,16.69
2023-07-27T23:32:54.231Z,16.65
2023-07-27T23:35:22.248Z,16.62
2023-07-27T23:37:50.839Z,16.58
2023-07-27T23:40:18.861Z,16.55
2023-07-27T23:42:46.723Z,16.52
2023-07-27T23:45:14.704Z,16.48
2023-07-27T23:47:42.678Z,16.44
2023-07-27T23:50:10.603Z,16.42
2023-07-27T23:52:38.511Z,16.39
2023-07-27T23:55:06.828Z,16.36
2023-07-27T23:57:34.694Z,16.34
